Time;durP1;ratioP1;P1;durP2;ratioP2;P2;SDS_P1;SDS_P2;PMS_P1;PMS_P2;Temp;Humidity;BMP_temperature;BMP_pressure;BME280_temperature;BME280_humidity;BME280_pressure;Samples;Min_cycle;Max_cycle;Signal;HPM_P1;HPM_P2
2022/10/04 00:01:13;;;;;;;;;;;;;;;8.72;74.68;99644.72;6215273;23;19974;-64
2022/10/04 00:03:42;;;;;;;;;;;;;;;8.74;74.27;99655.13;6213595;23;19924;-65
2022/10/04 00:06:20;;;;;;;;;;;;;;;8.72;74.30;99655.25;6187569;23;19924;-65
2022/10/04 00:08:46;;;;;;;;;;;;;;;8.72;74.30;99651.81;6188767;23;19920;-66
2022/10/04 00:11:24;;;;;;;;;;;;;;;8.70;74.57;99643.25;6163662;23;19920;-66
2022/10/04 00:13:56;;;;;;;;;;;;;;;8.70;74.41;99643.25;6215061;23;19919;-66
2022/10/04 00:16:27;;;;;;;;;;;;;;;8.73;74.21;99640.28;6187941;23;19926;-65
2022/10/04 00:19:12;;;;;;;;;;;;;;;8.74;73.90;99634.84;6216370;23;19919;-65
2022/10/04 00:21:52;;;;;;;;;;;;;;;8.71;73.69;99650.16;6216950;23;19919;-66
2022/10/04 00:24:20;;;;;;;;;;;;;;;8.66;73.90;99643.56;6165977;23;20254;-65
2022/10/04 00:26:46;;;;;;;;;;;;;;;8.59;73.58;99647.00;6215992;23;19920;-65
2022/10/04 00:29:25;;;;;;;;;;;;;;;8.52;73.70;99643.31;6216866;23;19927;-65
2022/10/04 00:32:07;;;;;;;;;;;;;;;8.46;73.18;99643.97;6165661;23;19920;-65
2022/10/04 00:34:50;;;;;;;;;;;;;;;8.38;73.35;99642.94;6217183;23;19934;-66
2022/10/04 00:37:18;;;;;;;;;;;;;;;8.32;74.01;99640.91;6189330;23;20361;-66
2022/10/04 00:39:46;;;;;;;;;;;;;;;8.29;74.12;99629.88;6217127;23;19927;-66
2022/10/04 00:42:12;;;;;;;;;;;;;;;8.28;74.12;99641.38;6190050;23;19923;-65
2022/10/04 00:44:45;;;;;;;;;;;;;;;8.29;73.73;99635.16;6216907;23;20309;-66
2022/10/04 00:47:18;;;;;;;;;;;;;;;8.27;74.07;99630.03;6215844;23;19970;-66
2022/10/04 00:49:45;;;;;;;;;;;;;;;8.27;73.74;99623.94;6164959;23;19947;-66
2022/10/04 00:52:15;;;;;;;;;;;;;;;8.26;73.87;99615.19;6216711;23;19927;-65
2022/10/04 00:54:45;;;;;;;;;;;;;;;8.23;73.89;99615.50;6216707;23;19920;-66
2022/10/04 00:57:18;;;;;;;;;;;;;;;8.21;73.76;99616.66;6215928;23;19920;-66
2022/10/04 00:59:47;;;;;;;;;;;;;;;8.15;73.19;99618.09;6190129;23;19920;-66
2022/10/04 01:02:18;;;;;;;;;;;;;;;8.10;73.58;99615.13;6215076;23;19919;-66
2022/10/04 01:04:50;;;;;;;;;;;;;;;8.06;73.57;99614.59;6216817;23;19920;-66
2022/10/04 01:07:21;;;;;;;;;;;;;;;8.04;73.94;99608.69;6189376;23;19923;-65
2022/10/04 01:09:53;;;;;;;;;;;;;;;8.04;74.06;99616.59;6190228;23;19924;-67
2022/10/04 01:12:30;;;;;;;;;;;;;;;8.06;74.13;99614.59;6190002;23;19924;-66
2022/10/04 01:15:06;;;;;;;;;;;;;;;8.05;73.65;99617.41;6216417;23;19924;-66
2022/10/04 01:17:32;;;;;;;;;;;;;;;8.00;73.63;99609.13;6215771;23;20290;-66
2022/10/04 01:19:59;;;;;;;;;;;;;;;7.95;73.84;99613.06;6190039;23;19966;-65
2022/10/04 01:22:34;;;;;;;;;;;;;;;7.92;73.65;99618.66;6216451;23;19924;-65
2022/10/04 01:25:00;;;;;;;;;;;;;;;7.88;74.09;99613.84;6190151;23;19930;-65
2022/10/04 01:27:41;;;;;;;;;;;;;;;7.86;74.19;99607.91;6215534;23;19920;-65
2022/10/04 01:30:09;;;;;;;;;;;;;;;7.82;73.67;99612.66;6189648;23;20235;-65
2022/10/04 01:32:37;;;;;;;;;;;;;;;7.78;73.87;99611.31;6189954;23;19927;-65
2022/10/04 01:35:04;;;;;;;;;;;;;;;7.75;74.53;99605.53;6189807;23;19920;-65
2022/10/04 01:37:30;;;;;;;;;;;;;;;7.77;74.56;99599.13;6189208;23;19924;-65
2022/10/04 01:39:57;;;;;;;;;;;;;;;7.79;74.25;99598.97;6189816;23;19928;-65
2022/10/04 01:42:28;;;;;;;;;;;;;;;7.78;73.99;99597.34;6216387;23;19927;-65
2022/10/04 01:45:00;;;;;;;;;;;;;;;7.76;74.06;99601.94;6189583;23;20293;-65
2022/10/04 01:47:31;;;;;;;;;;;;;;;7.76;74.20;99594.03;6188773;23;19920;-65
2022/10/04 01:50:01;;;;;;;;;;;;;;;7.74;74.12;99588.09;6216017;23;19926;-65
2022/10/04 01:52:42;;;;;;;;;;;;;;;7.76;74.44;99573.81;6189671;23;20353;-65
2022/10/04 01:55:14;;;;;;;;;;;;;;;7.78;74.16;99563.13;6216011;23;19924;-65
2022/10/04 01:57:45;;;;;;;;;;;;;;;7.79;74.11;99567.38;6163960;23;19967;-65
2022/10/04 02:00:12;;;;;;;;;;;;;;;7.80;74.37;99562.00;6190021;23;19978;-65
2022/10/04 02:02:42;;;;;;;;;;;;;;;7.82;74.58;99565.28;6215992;23;19924;-65
2022/10/04 02:05:10;;;;;;;;;;;;;;;7.86;74.64;99569.25;6214410;23;19923;-65
2022/10/04 02:07:38;;;;;;;;;;;;;;;7.85;74.06;99564.97;6188876;23;19932;-65
2022/10/04 02:10:07;;;;;;;;;;;;;;;7.81;73.68;99560.19;6215959;23;20346;-65
2022/10/04 02:12:34;;;;;;;;;;;;;;;7.73;73.44;99560.94;6164628;23;19920;-65
2022/10/04 02:15:02;;;;;;;;;;;;;;;7.64;73.61;99560.06;6189247;23;19920;-65
2022/10/04 02:17:30;;;;;;;;;;;;;;;7.59;73.74;99561.50;6215330;23;19974;-66
2022/10/04 02:19:58;;;;;;;;;;;;;;;7.54;73.91;99554.09;6216213;23;19970;-65
2022/10/04 02:22:25;;;;;;;;;;;;;;;7.53;73.92;99555.06;6189971;23;19920;-65
2022/10/04 02:24:53;;;;;;;;;;;;;;;7.53;73.88;99555.06;6216228;23;20342;-65
2022/10/04 02:27:24;;;;;;;;;;;;;;;7.51;73.87;99554.41;6215830;23;19974;-65
2022/10/04 02:29:51;;;;;;;;;;;;;;;7.50;74.31;99558.00;6216104;23;19972;-65
2022/10/04 02:35:03;;;;;;;;;;;;;;;7.47;74.70;99560.09;6215890;23;19977;-65
2022/10/04 02:37:29;;;;;;;;;;;;;;;7.47;74.50;99550.44;6215375;23;19924;-65
2022/10/04 02:40:03;;;;;;;;;;;;;;;7.47;74.30;99541.69;6164494;23;19924;-65
2022/10/04 02:42:39;;;;;;;;;;;;;;;7.47;74.42;99541.69;6188547;23;20261;-65
2022/10/04 02:45:18;;;;;;;;;;;;;;;7.47;74.50;99550.44;6215771;23;19985;-65
2022/10/04 02:47:48;;;;;;;;;;;;;;;7.46;74.01;99546.13;6188345;23;19943;-65
2022/10/04 02:50:34;;;;;;;;;;;;;;;7.40;73.66;99542.31;6215573;23;20302;-65
2022/10/04 02:53:13;;;;;;;;;;;;;;;7.33;73.55;99545.72;6213939;23;19924;-65
2022/10/04 02:55:40;;;;;;;;;;;;;;;7.28;73.83;99537.47;6215590;23;19924;-65
2022/10/04 02:58:12;;;;;;;;;;;;;;;7.25;74.16;99538.59;6214717;23;19920;-65
2022/10/04 03:00:46;;;;;;;;;;;;;;;7.24;74.24;99536.13;6189862;23;19924;-65
2022/10/04 03:03:29;;;;;;;;;;;;;;;7.24;74.32;99533.50;6215313;23;19920;-65
2022/10/04 03:06:07;;;;;;;;;;;;;;;7.26;74.81;99524.47;6215271;23;19920;-65
2022/10/04 03:08:45;;;;;;;;;;;;;;;7.31;74.73;99526.66;6215076;23;19924;-65
2022/10/04 03:11:12;;;;;;;;;;;;;;;7.34;74.61;99515.81;6215448;23;19974;-65
2022/10/04 03:13:40;;;;;;;;;;;;;;;7.34;74.33;99516.63;6215498;23;19924;-65
2022/10/04 03:16:07;;;;;;;;;;;;;;;7.33;73.85;99514.97;6215453;23;19924;-65
2022/10/04 03:18:34;;;;;;;;;;;;;;;7.29;73.83;99508.38;6201326;23;19947;-65
2022/10/04 03:21:02;;;;;;;;;;;;;;;7.23;73.60;99514.28;6215253;23;19920;-65
2022/10/04 03:23:29;;;;;;;;;;;;;;;7.15;73.56;99508.94;6215398;23;19920;-66
2022/10/04 03:25:59;;;;;;;;;;;;;;;7.08;73.63;99506.09;6213585;23;19920;-65
2022/10/04 03:28:26;;;;;;;;;;;;;;;7.02;73.63;99514.63;6214308;23;20253;-65
2022/10/04 03:30:53;;;;;;;;;;;;;;;6.99;74.04;99516.72;6215375;23;19919;-63
2022/10/04 03:33:21;;;;;;;;;;;;;;;6.93;73.88;99513.69;6213676;23;19950;-63
2022/10/04 03:35:50;;;;;;;;;;;;;;;6.87;74.04;99519.56;6213920;23;19966;-63
2022/10/04 03:38:17;;;;;;;;;;;;;;;6.85;74.50;99525.94;6213022;23;19919;-66
2022/10/04 03:40:50;;;;;;;;;;;;;;;6.84;74.74;99516.41;6215149;23;20330;-66
2022/10/04 03:43:16;;;;;;;;;;;;;;;6.90;75.13;99515.81;6215159;23;19920;-66
2022/10/04 03:45:43;;;;;;;;;;;;;;;6.95;75.11;99508.31;6214968;23;19920;-66
2022/10/04 03:48:12;;;;;;;;;;;;;;;7.00;74.61;99510.47;6212604;23;19927;-64
2022/10/04 03:50:45;;;;;;;;;;;;;;;7.03;74.82;99505.75;6215036;23;19924;-66
2022/10/04 03:53:17;;;;;;;;;;;;;;;7.06;74.50;99515.09;6213388;23;19970;-66
2022/10/04 03:55:44;;;;;;;;;;;;;;;7.06;74.04;99523.84;6215147;23;19920;-66
2022/10/04 03:58:13;;;;;;;;;;;;;;;7.04;74.13;99525.78;6187528;23;19920;-66
2022/10/04 04:03:44;;;;;;;;;;;;;;;6.96;74.08;99530.97;6212194;23;20368;-66
2022/10/04 04:06:14;;;;;;;;;;;;;;;6.92;74.16;99534.88;6214351;23;19924;-66
2022/10/04 04:08:43;;;;;;;;;;;;;;;6.92;74.52;99527.81;6215366;23;19923;-65
2022/10/04 04:11:17;;;;;;;;;;;;;;;6.95;74.67;99534.59;6214853;23;19928;-66
2022/10/04 04:13:50;;;;;;;;;;;;;;;6.98;74.25;99538.69;6163847;23;21777;-66
2022/10/04 04:16:19;;;;;;;;;;;;;;;6.99;74.41;99532.50;6211963;23;19919;-66
2022/10/04 04:18:47;;;;;;;;;;;;;;;7.02;74.35;99532.16;6218325;23;19919;-67
2022/10/04 04:21:17;;;;;;;;;;;;;;;7.03;74.06;99533.84;6218444;23;19920;-65
2022/10/04 04:23:48;;;;;;;;;;;;;;;7.03;74.08;99532.03;6218380;23;19919;-67
2022/10/04 04:26:27;;;;;;;;;;;;;;;7.04;73.92;99535.47;6212623;23;20338;-67
2022/10/04 04:28:56;;;;;;;;;;;;;;;7.02;73.58;99534.78;6213315;23;19920;-67
2022/10/04 04:31:25;;;;;;;;;;;;;;;6.95;73.31;99539.84;6214821;23;19927;-67
2022/10/04 04:34:00;;;;;;;;;;;;;;;6.85;73.36;99539.09;6213167;23;20469;-66
2022/10/04 04:36:27;;;;;;;;;;;;;;;6.78;73.95;99546.75;6162611;23;20369;-68
2022/10/04 04:41:50;;;;;;;;;;;;;;;6.80;74.35;99542.16;6214161;23;19920;-66
2022/10/04 04:44:17;;;;;;;;;;;;;;;6.83;74.45;99543.69;6214629;23;19919;-66
2022/10/04 04:46:45;;;;;;;;;;;;;;;6.87;74.34;99547.66;6214097;23;20258;-65
2022/10/04 04:49:14;;;;;;;;;;;;;;;6.87;73.67;99551.09;6188527;23;19920;-67
2022/10/04 04:51:45;;;;;;;;;;;;;;;6.85;73.88;99558.31;6214869;23;20350;-67
2022/10/04 04:54:13;;;;;;;;;;;;;;;6.82;73.84;99550.75;6188595;23;20284;-67
2022/10/04 04:56:41;;;;;;;;;;;;;;;6.80;73.88;99547.41;6187523;23;20373;-67
2022/10/04 04:59:08;;;;;;;;;;;;;;;6.83;74.30;99543.69;6215278;23;20301;-67
2022/10/04 05:01:35;;;;;;;;;;;;;;;6.89;74.41;99537.81;6215315;23;19966;-69
2022/10/04 05:04:04;;;;;;;;;;;;;;;6.91;73.95;99534.06;6188503;23;19920;-68
2022/10/04 05:06:31;;;;;;;;;;;;;;;6.92;73.69;99530.44;6188934;23;20002;-68
2022/10/04 05:08:58;;;;;;;;;;;;;;;6.95;74.01;99519.63;6189885;23;20308;-66
2022/10/04 05:11:28;;;;;;;;;;;;;;;6.99;73.84;99521.97;6214398;23;20405;-68
2022/10/04 05:13:58;;;;;;;;;;;;;;;6.98;73.44;99517.66;6165575;23;19919;-67
2022/10/04 05:16:40;;;;;;;;;;;;;;;6.94;73.40;99511.91;6213558;23;19920;-69
2022/10/04 05:19:13;;;;;;;;;;;;;;;6.90;73.46;99513.19;6190662;23;19939;-67
2022/10/04 05:21:43;;;;;;;;;;;;;;;6.83;73.28;99510.34;6215256;23;20349;-68
2022/10/04 05:24:20;;;;;;;;;;;;;;;6.77;72.90;99516.19;6214957;23;19920;-68
2022/10/04 05:26:53;;;;;;;;;;;;;;;6.74;73.51;99513.88;6164558;23;19970;-68
2022/10/04 05:29:25;;;;;;;;;;;;;;;6.77;73.79;99502.22;6189803;23;20273;-69
2022/10/04 05:31:54;;;;;;;;;;;;;;;6.69;73.21;99509.06;6190262;23;19920;-67
2022/10/04 05:34:26;;;;;;;;;;;;;;;6.67;73.65;99504.94;6214945;23;19926;-67
2022/10/04 05:37:05;;;;;;;;;;;;;;;6.69;73.78;99506.44;6165041;23;19976;-67
2022/10/04 05:40:04;;;;;;;;;;;;;;;6.71;73.94;99511.53;6215169;23;20011;-67
2022/10/04 05:42:48;;;;;;;;;;;;;;;6.74;73.99;99520.94;6191099;23;19920;-69
2022/10/04 05:45:23;;;;;;;;;;;;;;;6.71;73.68;99516.78;6165723;23;19951;-69
2022/10/04 05:47:59;;;;;;;;;;;;;;;6.74;74.12;99523.56;6166168;23;19920;-67
2022/10/04 05:50:40;;;;;;;;;;;;;;;6.82;74.47;99519.19;6217298;23;19920;-67
2022/10/04 05:53:19;;;;;;;;;;;;;;;6.89;74.34;99514.97;6190017;23;19967;-67
2022/10/04 05:56:04;;;;;;;;;;;;;;;6.97;74.36;99516.03;6216111;23;19970;-67
2022/10/04 05:58:43;;;;;;;;;;;;;;;7.05;74.13;99509.03;6215373;23;20002;-68
2022/10/04 06:01:19;;;;;;;;;;;;;;;7.12;73.61;99509.25;6216577;23;19924;-67
2022/10/04 06:03:49;;;;;;;;;;;;;;;7.17;73.68;99510.44;6190179;23;20010;-67
2022/10/04 06:06:23;;;;;;;;;;;;;;;7.24;73.70;99510.66;6188907;23;19920;-67
2022/10/04 06:09:09;;;;;;;;;;;;;;;7.29;73.32;99508.38;6214623;23;19924;-68
2022/10/04 06:11:37;;;;;;;;;;;;;;;7.35;73.20;99507.78;6215386;23;20007;-68
2022/10/04 06:14:06;;;;;;;;;;;;;;;7.38;72.77;99514.50;6215321;23;19923;-67
2022/10/04 06:16:52;;;;;;;;;;;;;;;7.39;72.83;99517.00;6214741;23;19970;-67
2022/10/04 06:19:18;;;;;;;;;;;;;;;7.45;73.13;99516.38;6214148;23;19920;-67
2022/10/04 06:22:05;;;;;;;;;;;;;;;7.49;73.09;99532.69;6215534;23;19966;-68
2022/10/04 06:24:36;;;;;;;;;;;;;;;7.50;72.34;99539.59;6214111;23;19966;-68
2022/10/04 06:27:07;;;;;;;;;;;;;;;7.52;72.61;99531.56;6216171;23;19920;-67
2022/10/04 06:29:37;;;;;;;;;;;;;;;7.57;73.04;99526.66;6189049;23;19920;-67
2022/10/04 06:32:11;;;;;;;;;;;;;;;7.64;72.67;99530.31;6189471;23;19924;-67
2022/10/04 06:34:50;;;;;;;;;;;;;;;7.68;72.50;99527.22;6215966;23;19924;-67
2022/10/04 06:37:19;;;;;;;;;;;;;;;7.73;72.18;99528.53;6215516;23;19920;-67
2022/10/04 06:40:01;;;;;;;;;;;;;;;7.77;72.17;99524.63;6216366;23;19924;-68
2022/10/04 06:42:38;;;;;;;;;;;;;;;7.83;72.31;99527.44;6189332;23;19923;-67
2022/10/04 06:45:16;;;;;;;;;;;;;;;7.89;71.85;99523.38;6215951;23;20261;-68
2022/10/04 06:48:12;;;;;;;;;;;;;;;7.94;72.13;99532.44;6215429;23;19923;-67
2022/10/04 06:50:50;;;;;;;;;;;;;;;7.97;71.75;99527.84;6135293;23;19965;-68
2022/10/04 06:53:22;;;;;;;;;;;;;;;8.00;71.72;99528.34;6216119;23;19983;-68
2022/10/04 06:55:48;;;;;;;;;;;;;;;8.05;71.25;99518.16;6215564;23;19985;-68
2022/10/04 06:58:15;;;;;;;;;;;;;;;8.12;71.58;99523.59;6189353;23;19943;-68
2022/10/04 07:00:55;;;;;;;;;;;;;;;8.21;71.46;99530.56;6189183;23;20338;-68
2022/10/04 07:03:42;;;;;;;;;;;;;;;8.29;71.41;99542.94;6215738;23;19951;-69
2022/10/04 07:06:20;;;;;;;;;;;;;;;8.37;71.74;99541.19;6172093;23;19920;-69
2022/10/04 07:08:48;;;;;;;;;;;;;;;8.46;71.36;99546.47;6215302;23;19920;-69
2022/10/04 07:11:21;;;;;;;;;;;;;;;8.50;71.06;99542.53;6215406;23;20320;-70
2022/10/04 07:13:55;;;;;;;;;;;;;;;8.53;71.04;99547.47;6215528;23;20353;-69
2022/10/04 07:16:39;;;;;;;;;;;;;;;8.60;70.90;99536.13;6214743;23;19944;-68
2022/10/04 07:19:07;;;;;;;;;;;;;;;8.73;71.03;99534.81;6214664;23;19920;-69
2022/10/04 07:21:53;;;;;;;;;;;;;;;8.90;70.85;99539.16;6213746;23;19923;-68
2022/10/04 07:24:24;;;;;;;;;;;;;;;9.09;70.47;99536.16;6215196;23;20273;-69
2022/10/04 07:26:51;;;;;;;;;;;;;;;9.25;70.18;99537.16;6214351;23;19981;-69
2022/10/04 07:29:30;;;;;;;;;;;;;;;9.42;70.47;99536.16;6215059;23;19920;-69
2022/10/04 07:32:04;;;;;;;;;;;;;;;9.60;69.60;99544.72;6215137;23;20330;-69
2022/10/04 07:34:35;;;;;;;;;;;;;;;9.75;68.87;99551.91;6215060;23;19920;-69
2022/10/04 07:37:12;;;;;;;;;;;;;;;9.86;68.66;99544.47;6187854;23;20254;-69
2022/10/04 07:39:38;;;;;;;;;;;;;;;10.02;68.70;99538.31;6215232;23;19920;-69
2022/10/04 07:42:13;;;;;;;;;;;;;;;10.18;68.01;99548.00;6215161;23;19920;-69
2022/10/04 07:44:41;;;;;;;;;;;;;;;10.30;68.03;99556.41;6215453;23;19924;-69
2022/10/04 07:47:17;;;;;;;;;;;;;;;10.44;67.75;99544.25;6188198;23;19920;-69
2022/10/04 07:49:43;;;;;;;;;;;;;;;10.56;67.86;99538.41;6188674;23;20350;-69
2022/10/04 07:52:09;;;;;;;;;;;;;;;10.64;67.78;99551.56;6215277;23;19920;-70
2022/10/04 07:54:42;;;;;;;;;;;;;;;10.72;67.80;99545.41;6214889;23;20305;-69
2022/10/04 07:57:18;;;;;;;;;;;;;;;10.81;67.64;99538.25;6212703;23;20335;-69
2022/10/04 07:59:47;;;;;;;;;;;;;;;10.87;67.45;99540.19;6215360;23;19920;-69
2022/10/04 08:02:14;;;;;;;;;;;;;;;10.95;67.09;99540.13;6214287;23;19920;-69
2022/10/04 08:05:00;;;;;;;;;;;;;;;11.01;66.51;99536.78;6214846;23;19924;-69
2022/10/04 08:07:45;;;;;;;;;;;;;;;11.04;66.56;99536.44;6214135;23;19978;-69
2022/10/04 08:10:29;;;;;;;;;;;;;;;11.10;66.34;99530.44;6215381;23;19924;-69
2022/10/04 08:13:09;;;;;;;;;;;;;;;11.17;66.16;99530.53;6214823;23;19920;-69
2022/10/04 08:15:36;;;;;;;;;;;;;;;11.27;66.59;99527.66;6188515;23;19920;-69
2022/10/04 08:18:09;;;;;;;;;;;;;;;11.32;66.46;99535.88;6188183;23;19947;-69
2022/10/04 08:20:38;;;;;;;;;;;;;;;11.31;66.13;99529.75;6215219;23;19920;-69
2022/10/04 08:23:23;;;;;;;;;;;;;;;11.25;65.87;99527.81;6214792;23;19920;-69
2022/10/04 08:25:59;;;;;;;;;;;;;;;11.22;66.31;99524.69;6214563;23;19927;-69
2022/10/04 08:31:25;;;;;;;;;;;;;;;11.18;66.22;99521.59;6214697;23;19920;-68
2022/10/04 08:33:56;;;;;;;;;;;;;;;11.14;66.53;99521.16;6213360;23;19919;-66
2022/10/04 08:36:29;;;;;;;;;;;;;;;11.14;66.41;99512.34;6214230;23;20242;-68
2022/10/04 12:48:47;;;;;;;4.40;2.65;;;;;;;18.39;60.11;98987.09;5036788;27;20381;-61
2022/10/04 12:51:52;;;;;;;2.65;2.10;;;;;;;18.27;62.96;98991.69;5040903;28;20057;-59
2022/10/04 12:54:36;;;;;;;2.60;2.40;;;;;;;18.20;60.38;98989.13;5037114;28;20057;-59
2022/10/04 12:57:07;;;;;;;4.78;2.30;;;;;;;18.17;62.03;98992.31;5050121;28;20045;-55
2022/10/04 13:00:15;;;;;;;7.07;2.00;;;;;;;18.13;61.62;98987.66;5050595;28;20099;-57
2022/10/04 13:03:03;;;;;;;4.47;3.75;;;;;;;18.10;63.46;98980.91;5022516;28;20050;-57
2022/10/04 13:06:01;;;;;;;6.50;2.70;;;;;;;18.07;63.06;98986.72;5028920;28;20073;-58
2022/10/04 13:08:46;;;;;;;3.60;2.63;;;;;;;18.09;64.43;98981.16;5029906;28;20076;-57
2022/10/04 13:11:38;;;;;;;3.55;2.75;;;;;;;18.05;62.22;98981.63;5010396;28;20050;-58
2022/10/04 13:14:44;;;;;;;4.53;3.63;;;;;;;18.06;63.54;98979.75;5008627;28;20049;-56
2022/10/04 13:17:31;;;;;;;5.10;3.10;;;;;;;18.06;63.49;98979.75;5011471;28;20062;-55
2022/10/04 13:20:26;;;;;;;4.63;3.35;;;;;;;18.06;62.06;98971.75;5028261;28;20068;-55
2022/10/04 13:23:13;;;;;;;3.00;2.67;;;;;;;18.04;61.78;98969.31;5027169;28;20499;-55
2022/10/04 13:25:55;;;;;;;3.08;2.78;;;;;;;18.02;61.65;98979.41;5027561;28;20085;-56
2022/10/04 13:28:46;;;;;;;3.40;2.75;;;;;;;18.09;62.00;98973.94;5027265;28;20041;-55
2022/10/04 13:31:23;;;;;;;9.77;4.05;;;;;;;18.10;62.25;98978.25;5027724;28;20045;-56
2022/10/04 13:34:08;;;;;;;9.60;5.13;;;;;;;18.13;61.20;98974.28;5027183;28;20104;-57
2022/10/04 13:37:03;;;;;;;9.48;4.90;;;;;;;18.14;61.22;98978.59;5028123;28;20076;-57
2022/10/04 13:39:53;;;;;;;10.20;5.25;;;;;;;18.14;59.76;98975.91;5048430;28;20080;-56
2022/10/04 13:42:27;;;;;;;4.72;3.15;;;;;;;18.09;60.07;98973.13;5043663;28;20062;-56
2022/10/04 13:45:09;;;;;;;4.53;3.05;;;;;;;18.06;59.91;98974.41;5049500;28;20095;-55
2022/10/04 13:47:54;;;;;;;5.13;3.13;;;;;;;18.09;60.36;98965.91;5049416;28;20037;-56
2022/10/04 13:50:27;;;;;;;7.40;3.50;;;;;;;18.11;60.05;98961.13;5049488;28;20456;-54
2022/10/04 13:57:35;;;;;;;15.13;8.77;;;;;;;17.88;60.17;98961.19;5110793;28;20094;-52
2022/10/04 14:03:09;;;;;;;14.05;8.10;;;;;;;;;;5036499;28;20895;-55
2022/10/04 14:05:55;;;;;;;13.23;8.32;;;;;;;;;;4937493;28;20180;-52
2022/10/04 14:08:35;;;;;;;12.63;6.40;;;;;;;;;;5006124;28;94366;-54
2022/10/04 14:11:20;;;;;;;11.73;6.25;;;;;;;;;;4976946;28;20051;-54
2022/10/04 14:13:56;;;;;;;11.35;7.35;;;;;;;;;;4990837;28;20038;-53
2022/10/04 14:16:41;;;;;;;12.45;7.47;;;;;;;;;;4989724;28;20436;-53
2022/10/04 14:19:24;;;;;;;16.00;8.30;;;;;;;;;;4988980;28;20116;-53
2022/10/04 14:22:03;;;;;;;15.82;7.40;;;;;;;;;;4990866;28;20547;-51
2022/10/04 14:24:35;;;;;;;11.48;7.85;;;;;;;;;;4990789;28;20098;-54
2022/10/04 14:27:12;;;;;;;12.73;7.65;;;;;;;;;;4990249;28;20078;-55
2022/10/04 14:29:57;;;;;;;12.57;7.47;;;;;;;;;;4990890;28;20105;-54
2022/10/04 14:32:42;;;;;;;11.60;6.70;;;;;;;;;;4990323;28;20094;-54
2022/10/04 14:35:16;;;;;;;11.80;6.72;;;;;;;;;;5005088;28;20050;-55
2022/10/04 14:38:06;;;;;;;12.65;7.03;;;;;;;;;;4990391;28;20038;-54
2022/10/04 14:40:32;;;;;;;10.57;7.18;;;;;;;;;;4990619;28;20054;-54
2022/10/04 14:43:19;;;;;;;10.75;6.78;;;;;;;;;;4988968;28;20062;-54
2022/10/04 14:46:05;;;;;;;11.40;7.10;;;;;;;;;;4990447;28;20125;-55
2022/10/04 14:48:50;;;;;;;12.45;6.88;;;;;;;;;;4990012;28;20038;-54
2022/10/04 14:51:35;;;;;;;13.48;7.95;;;;;;;;;;4990202;28;20109;-53
2022/10/04 14:54:04;;;;;;;11.73;7.38;;;;;;;;;;4990316;28;20042;-54
2022/10/04 14:56:42;;;;;;;13.07;6.57;;;;;;;;;;4990026;28;20051;-54
2022/10/04 14:59:21;;;;;;;13.50;7.85;;;;;;;;;;4988955;28;20510;-55
2022/10/04 15:02:00;;;;;;;8.70;5.93;;;;;;;;;;4989886;28;20093;-56
2022/10/04 15:04:31;;;;;;;11.27;6.57;;;;;;;;;;4989809;28;20468;-55
2022/10/04 15:07:00;;;;;;;10.73;6.90;;;;;;;;;;4989943;28;20511;-54
2022/10/04 15:09:48;;;;;;;9.80;6.60;;;;;;;;;;4989870;28;20038;-55
2022/10/04 15:12:25;;;;;;;8.60;6.47;;;;;;;;;;4989470;28;20101;-58
2022/10/04 15:15:12;;;;;;;10.80;6.53;;;;;;;;;;4976761;28;20050;-55
2022/10/04 15:17:54;;;;;;;11.25;6.80;;;;;;;;;;4977127;28;20101;-54
2022/10/04 15:20:24;;;;;;;8.95;5.93;;;;;;;;;;4977080;28;20039;-54
2022/10/04 15:22:55;;;;;;;9.55;6.15;;;;;;;;;;4977052;28;20071;-54
2022/10/04 15:25:36;;;;;;;9.20;5.78;;;;;;;;;;4977185;28;20074;-54
2022/10/04 15:28:06;;;;;;;9.13;6.00;;;;;;;;;;4976792;28;20049;-56
2022/10/04 15:30:32;;;;;;;8.60;5.85;;;;;;;;;;4977071;28;20043;-54
2022/10/04 15:33:17;;;;;;;9.30;6.13;;;;;;;;;;4976162;28;20558;-54
2022/10/04 15:35:50;;;;;;;12.23;6.65;;;;;;;;;;4976337;28;20055;-52
2022/10/04 15:38:28;;;;;;;10.63;6.78;;;;;;;;;;4976409;28;20074;-53
2022/10/04 15:41:07;;;;;;;14.80;7.43;;;;;;;;;;4976266;28;20055;-53
2022/10/04 15:43:42;;;;;;;11.45;8.05;;;;;;;;;;4976242;28;20447;-51
2022/10/04 15:46:36;;;;;;;11.98;6.80;;;;;;;;;;4974891;28;20039;-54
2022/10/04 15:49:06;;;;;;;10.95;7.30;;;;;;;;;;4971025;28;20124;-53
2022/10/04 15:51:41;;;;;;;10.40;6.38;;;;;;;;;;4973932;28;20467;-53
2022/10/04 15:54:12;;;;;;;10.18;6.38;;;;;;;;;;4974020;28;20058;-53
2022/10/04 15:56:38;;;;;;;10.95;7.18;;;;;;;;;;4973779;28;20105;-52
2022/10/04 15:59:23;;;;;;;9.88;6.57;;;;;;;;;;4973858;28;20547;-54
2022/10/04 16:02:09;;;;;;;10.30;6.95;;;;;;;;;;4973654;28;20071;-53
2022/10/04 16:04:54;;;;;;;10.40;6.40;;;;;;;;;;4974355;28;20067;-52
2022/10/04 16:07:40;;;;;;;10.23;6.65;;;;;;;;;;4976192;28;20047;-53
2022/10/04 16:10:13;;;;;;;10.43;6.40;;;;;;;;;;4976075;28;20097;-52
2022/10/04 16:12:46;;;;;;;8.95;6.75;;;;;;;;;;4975718;28;20163;-53
2022/10/04 16:15:18;;;;;;;8.52;5.97;;;;;;;;;;4976037;28;20047;-57
